Time;durP1;ratioP1;P1;durP2;ratioP2;P2;SDS_P1;SDS_P2;PMS_P1;PMS_P2;Temp;Humidity;BMP_temperature;BMP_pressure;BME280_temperature;BME280_humidity;BME280_pressure;Samples;Min_cycle;Max_cycle;Signal;HPM_P1;HPM_P2
2023/10/15 00:00:43;;;;;;;;;;;11.60;99.90;;;;;;2617375;54;19946;-72
2023/10/15 00:03:12;;;;;;;;;;;11.60;99.90;;;;;;2617458;54;20030;-71
2023/10/15 00:05:43;;;;;;;;;;;11.50;99.90;;;;;;2618119;54;19946;-71
2023/10/15 00:08:15;;;;;;;;;;;11.50;99.90;;;;;;2618358;39;20366;-71
2023/10/15 00:10:46;;;;;;;;;;;11.50;99.90;;;;;;2618161;54;19945;-71
2023/10/15 00:13:16;;;;;;;;;;;11.50;99.90;;;;;;2617589;54;19939;-72
2023/10/15 00:15:46;;;;;;;;;;;11.40;99.90;;;;;;2618091;54;19946;-71
2023/10/15 00:18:15;;;;;;;;;;;11.40;99.90;;;;;;2617550;49;19947;-70
2023/10/15 00:20:47;;;;;;;;;;;11.40;99.90;;;;;;2617890;47;20453;-71
2023/10/15 00:23:20;;;;;;;;;;;11.40;99.90;;;;;;2617936;47;19951;-71
2023/10/15 00:25:50;;;;;;;;;;;11.40;99.90;;;;;;2618489;54;19954;-71
2023/10/15 00:28:19;;;;;;;;;;;11.50;99.90;;;;;;2617827;54;20461;-72
2023/10/15 00:30:49;;;;;;;;;;;11.40;99.90;;;;;;2617294;54;19947;-71
2023/10/15 00:33:19;;;;;;;;;;;11.30;99.90;;;;;;2617366;50;19946;-71
2023/10/15 00:35:50;;;;;;;;;;;11.30;99.90;;;;;;2618258;54;19946;-71
2023/10/15 00:38:24;;;;;;;;;;;11.30;99.90;;;;;;2618318;47;20034;-71
2023/10/15 00:41:00;;;;;;;;;;;11.20;99.90;;;;;;2618079;54;19947;-71
2023/10/15 00:43:31;;;;;;;;;;;11.20;99.90;;;;;;2617055;47;19954;-71
2023/10/15 00:46:01;;;;;;;;;;;11.20;99.90;;;;;;2619514;47;19950;-71
2023/10/15 00:48:33;;;;;;;;;;;11.20;99.90;;;;;;2618819;47;19939;-71
2023/10/15 00:51:08;;;;;;;;;;;11.20;99.90;;;;;;2618203;54;19947;-71
2023/10/15 00:53:47;;;;;;;;;;;11.10;99.90;;;;;;2617695;54;19946;-71
2023/10/15 00:56:19;;;;;;;;;;;11.10;99.90;;;;;;2618125;47;19938;-72
2023/10/15 00:59:08;;;;;;;;;;;11.00;99.90;;;;;;2617395;47;19971;-72
2023/10/15 01:01:42;;;;;;;;;;;11.00;99.90;;;;;;2617766;54;20033;-72
2023/10/15 01:04:15;;;;;;;;;;;10.90;99.90;;;;;;2617475;54;19995;-71
2023/10/15 01:06:49;;;;;;;;;;;10.90;99.90;;;;;;2617780;51;19946;-71
2023/10/15 01:09:27;;;;;;;;;;;10.90;99.90;;;;;;2619074;39;20359;-72
2023/10/15 01:11:58;;;;;;;;;;;10.90;99.90;;;;;;2627660;54;19949;-71
2023/10/15 01:14:31;;;;;;;;;;;10.90;99.90;;;;;;2627195;50;19953;-71
2023/10/15 01:17:02;;;;;;;;;;;10.90;99.90;;;;;;2627906;47;19946;-71
2023/10/15 01:19:35;;;;;;;;;;;10.90;99.90;;;;;;2619866;46;19962;-72
2023/10/15 01:22:08;;;;;;;;;;;10.80;99.90;;;;;;2618377;47;19947;-72
2023/10/15 01:24:41;;;;;;;;;;;10.80;99.90;;;;;;2617532;47;19991;-72
2023/10/15 01:27:17;;;;;;;;;;;10.70;99.90;;;;;;2618562;47;19939;-70
2023/10/15 01:29:48;;;;;;;;;;;10.70;99.90;;;;;;2615892;47;19935;-71
2023/10/15 01:32:18;;;;;;;;;;;10.70;99.90;;;;;;2617782;54;19939;-71
2023/10/15 01:34:50;;;;;;;;;;;10.60;99.90;;;;;;2616673;39;20454;-71
2023/10/15 01:37:24;;;;;;;;;;;10.60;99.90;;;;;;2617552;47;19958;-71
2023/10/15 01:40:00;;;;;;;;;;;10.60;99.90;;;;;;2617355;47;19946;-71
2023/10/15 01:42:40;;;;;;;;;;;10.60;99.90;;;;;;2617925;47;19953;-71
2023/10/15 01:45:30;;;;;;;;;;;10.50;99.90;;;;;;2617619;47;19947;-71
2023/10/15 01:48:13;;;;;;;;;;;10.50;99.90;;;;;;2617901;47;19939;-71
2023/10/15 01:50:49;;;;;;;;;;;10.50;99.90;;;;;;2617465;51;20856;-71
2023/10/15 01:53:23;;;;;;;;;;;10.50;99.90;;;;;;2617131;47;19969;-71
2023/10/15 01:55:59;;;;;;;;;;;10.50;99.90;;;;;;2617751;54;20673;-71
2023/10/15 01:58:39;;;;;;;;;;;10.50;99.90;;;;;;2617222;54;19945;-71
2023/10/15 02:01:20;;;;;;;;;;;10.50;99.90;;;;;;2617941;47;19939;-71
2023/10/15 02:03:50;;;;;;;;;;;10.50;99.90;;;;;;2617340;47;19951;-71
2023/10/15 02:06:20;;;;;;;;;;;10.50;99.90;;;;;;2617840;54;19947;-70
2023/10/15 02:08:51;;;;;;;;;;;10.50;99.90;;;;;;2617984;54;19939;-70
2023/10/15 02:11:24;;;;;;;;;;;10.50;99.90;;;;;;2618170;47;19950;-71
2023/10/15 02:13:56;;;;;;;;;;;10.50;99.90;;;;;;2617517;47;19947;-70
2023/10/15 02:16:32;;;;;;;;;;;10.50;99.90;;;;;;2618295;39;20729;-71
2023/10/15 02:19:06;;;;;;;;;;;10.50;99.90;;;;;;2617693;54;19973;-71
2023/10/15 02:21:47;;;;;;;;;;;10.50;99.90;;;;;;2617489;54;19963;-70
2023/10/15 02:24:19;;;;;;;;;;;10.50;99.90;;;;;;2617424;47;19946;-71
2023/10/15 02:26:48;;;;;;;;;;;10.50;99.90;;;;;;2621206;54;20466;-71
2023/10/15 02:29:34;;;;;;;;;;;10.40;99.90;;;;;;2623800;47;19945;-71
2023/10/15 02:32:20;;;;;;;;;;;10.30;99.90;;;;;;2623935;47;19950;-70
2023/10/15 13:32:00;;;;;;;;;;;10.30;99.90;;;;;;2616891;46;20093;-78
2023/10/15 13:34:30;;;;;;;;;;;12.60;99.90;;;;;;2617752;47;19943;-77
2023/10/15 13:37:01;;;;;;;;;;;12.50;99.90;;;;;;2613394;47;19946;-76
2023/10/15 13:39:32;;;;;;;;;;;12.60;99.90;;;;;;2613683;54;20452;-78
2023/10/15 13:42:02;;;;;;;;;;;12.60;99.90;;;;;;2609247;47;20867;-77
2023/10/15 13:44:31;;;;;;;;;;;12.50;99.90;;;;;;2608815;47;19938;-76
2023/10/15 13:47:05;;;;;;;;;;;12.40;99.90;;;;;;2618958;54;19988;-77
2023/10/15 13:49:35;;;;;;;;;;;12.40;99.90;;;;;;2612741;47;19950;-76
2023/10/15 13:52:06;;;;;;;;;;;12.50;99.90;;;;;;2608344;47;19954;-76
2023/10/15 13:54:36;;;;;;;;;;;12.50;99.90;;;;;;2605812;47;19957;-74
2023/10/15 13:57:06;;;;;;;;;;;12.50;99.90;;;;;;2607273;47;19954;-75
2023/10/15 13:59:37;;;;;;;;;;;12.50;99.90;;;;;;2606669;47;19947;-75
2023/10/15 14:02:12;;;;;;;;;;;12.40;99.90;;;;;;2606892;47;19954;-76
2023/10/15 14:04:43;;;;;;;;;;;12.30;99.90;;;;;;2606713;47;19950;-74
2023/10/15 14:07:14;;;;;;;;;;;12.30;99.90;;;;;;2609770;47;19950;-76
2023/10/15 14:09:44;;;;;;;;;;;12.80;99.90;;;;;;2606575;47;19958;-76
2023/10/15 14:12:15;;;;;;;;;;;12.30;99.90;;;;;;2605779;47;19946;-75
2023/10/15 14:14:45;;;;;;;;;;;12.40;99.90;;;;;;2607228;47;19975;-74
2023/10/15 14:17:17;;;;;;;;;;;12.40;99.90;;;;;;2607538;47;20450;-77
2023/10/15 14:19:50;;;;;;;;;;;12.40;99.90;;;;;;2606794;47;19954;-76
2023/10/15 14:22:20;;;;;;;;;;;12.50;99.90;;;;;;2607419;54;20485;-76
2023/10/15 14:24:50;;;;;;;;;;;12.60;99.90;;;;;;2616711;54;20430;-76
2023/10/15 14:27:19;;;;;;;;;;;11.30;99.90;;;;;;2616475;47;19947;-69
2023/10/15 14:29:49;;;;;;;;;;;12.60;99.90;;;;;;2616479;54;19946;-68
2023/10/15 14:32:22;;;;;;;;;;;12.60;99.90;;;;;;2616195;54;19946;-60
2023/10/15 14:34:52;;;;;;;;;;;12.70;99.90;;;;;;2615054;54;20430;-63
2023/10/15 14:37:21;;;;;;;;;;;12.80;99.90;;;;;;2615773;54;19946;-61
2023/10/15 14:39:51;;;;;;;;;;;12.90;99.90;;;;;;2613580;47;20425;-63
2023/10/15 14:42:21;;;;;;;;;;;13.00;99.90;;;;;;2613624;54;20775;-62
2023/10/15 14:44:51;;;;;;;;;;;13.00;99.90;;;;;;2615505;49;19954;-74
2023/10/15 14:47:23;;;;;;;;;;;13.70;99.90;;;;;;2614353;51;19953;-79
2023/10/15 14:49:53;;;;;;;;;;;16.30;99.90;;;;;;2613173;54;19971;-75
2023/10/15 14:52:23;;;;;;;;;;;19.50;99.90;;;;;;2614934;47;19985;-72
2023/10/15 14:54:53;;;;;;;;;;;22.50;99.90;;;;;;2616041;39;20357;-75
2023/10/15 14:57:23;;;;;;;;;;;24.80;99.90;;;;;;2616692;54;19973;-75
2023/10/15 14:59:53;;;;;;;;;;;26.60;99.90;;;;;;2615404;54;20081;-76
2023/10/15 15:02:25;;;;;;;;;;;26.70;99.90;;;;;;2621796;54;19946;-76
2023/10/15 15:04:55;;;;;;;;;;;25.50;99.90;;;;;;2620103;39;20372;-77
2023/10/15 15:07:26;;;;;;;;;;;24.20;99.90;;;;;;2617278;54;19950;-78
2023/10/15 15:09:56;;;;;;;;;;;23.10;99.90;;;;;;2612711;47;20494;-77
2023/10/15 15:12:26;;;;;;;;;;;21.90;99.90;;;;;;2615663;47;19946;-78
2023/10/15 15:14:57;;;;;;;;;;;20.60;99.90;;;;;;2618537;39;20246;-77
2023/10/15 15:17:29;;;;;;;;;;;19.50;99.90;;;;;;2617261;39;20360;-77
2023/10/15 15:20:00;;;;;;;;;;;18.40;99.90;;;;;;2617168;47;19947;-76
2023/10/15 15:22:30;;;;;;;;;;;17.40;99.90;;;;;;2617359;54;19947;-77
2023/10/15 15:25:00;;;;;;;;;;;16.70;99.90;;;;;;2615956;51;19950;-75
2023/10/15 15:27:30;;;;;;;;;;;16.40;99.90;;;;;;2617212;50;20483;-74
2023/10/15 15:30:00;;;;;;;;;;;16.10;99.90;;;;;;2617273;54;19950;-80
2023/10/15 15:32:33;;;;;;;;;;;15.70;99.90;;;;;;2619891;39;20387;-78
2023/10/15 15:35:04;;;;;;;;;;;15.40;99.90;;;;;;2618592;47;20465;-76
2023/10/15 15:37:36;;;;;;;;;;;15.10;99.90;;;;;;2618713;47;19947;-75
2023/10/15 15:40:07;;;;;;;;;;;15.00;99.90;;;;;;2620454;54;20437;-77
2023/10/15 15:42:37;;;;;;;;;;;14.70;99.90;;;;;;2618238;47;20012;-76
2023/10/15 15:45:12;;;;;;;;;;;14.40;99.90;;;;;;2617698;47;19958;-78
2023/10/15 15:47:46;;;;;;;;;;;14.20;99.90;;;;;;2622596;47;19953;-80
2023/10/15 15:50:19;;;;;;;;;;;14.00;99.90;;;;;;2626937;54;19938;-78
2023/10/15 15:55:17;;;;;;;;;;;13.50;99.90;;;;;;2627963;47;19942;-84
2023/10/15 15:57:47;;;;;;;;;;;13.30;99.90;;;;;;2629422;47;19939;-80
2023/10/15 16:00:20;;;;;;;;;;;13.10;99.90;;;;;;2628651;47;19926;-79
2023/10/15 16:02:53;;;;;;;;;;;13.00;99.90;;;;;;2629615;47;20013;-80
2023/10/15 16:05:23;;;;;;;;;;;12.80;99.90;;;;;;2628850;47;19934;-82
2023/10/15 16:07:54;;;;;;;;;;;12.70;99.90;;;;;;2616328;47;19954;-78
2023/10/15 16:10:24;;;;;;;;;;;11.40;99.90;;;;;;2621685;47;19945;-77
2023/10/15 16:12:54;;;;;;;;;;;12.50;99.90;;;;;;2619073;47;19946;-76
2023/10/15 16:15:24;;;;;;;;;;;12.30;99.90;;;;;;2620054;54;19939;-75
2023/10/15 16:17:57;;;;;;;;;;;12.30;99.90;;;;;;2621061;47;19939;-75
2023/10/15 16:20:27;;;;;;;;;;;12.20;99.90;;;;;;2618729;39;20405;-72
2023/10/15 16:22:57;;;;;;;;;;;12.10;99.90;;;;;;2619069;47;19958;-77
2023/10/15 16:25:27;;;;;;;;;;;12.10;99.90;;;;;;2618122;47;20041;-79
2023/10/15 16:27:57;;;;;;;;;;;12.00;99.90;;;;;;2617829;47;19965;-76
2023/10/15 16:30:27;;;;;;;;;;;12.00;99.90;;;;;;2617242;47;19953;-76
2023/10/15 16:32:59;;;;;;;;;;;11.90;99.90;;;;;;2618643;47;19947;-79
2023/10/15 16:35:31;;;;;;;;;;;11.90;99.90;;;;;;2616913;47;19947;-78
2023/10/15 16:38:02;;;;;;;;;;;11.90;99.90;;;;;;2616019;47;20462;-76
2023/10/15 16:40:31;;;;;;;;;;;11.80;99.90;;;;;;2616334;54;19939;-74
2023/10/15 16:43:02;;;;;;;;;;;11.70;99.90;;;;;;2622381;47;19947;-80
2023/10/15 16:45:32;;;;;;;;;;;11.70;99.90;;;;;;2619567;47;19947;-74
2023/10/15 16:48:04;;;;;;;;;;;11.60;99.90;;;;;;2617849;54;19946;-76
2023/10/15 16:50:37;;;;;;;;;;;11.50;99.90;;;;;;2620009;47;20458;-77
2023/10/15 16:53:09;;;;;;;;;;;11.50;99.90;;;;;;2618211;46;19977;-76
2023/10/15 16:55:43;;;;;;;;;;;11.50;99.90;;;;;;2618519;47;19957;-76
2023/10/15 16:58:13;;;;;;;;;;;11.40;99.90;;;;;;2618546;46;19939;-75
2023/10/15 17:00:43;;;;;;;;;;;11.30;99.90;;;;;;2620328;47;19954;-76
2023/10/15 17:03:16;;;;;;;;;;;11.30;99.90;;;;;;2624044;47;19946;-78
2023/10/15 17:05:46;;;;;;;;;;;11.20;99.90;;;;;;2622537;46;19962;-77
2023/10/15 17:08:16;;;;;;;;;;;11.20;99.90;;;;;;2619443;47;20410;-72
2023/10/15 17:10:51;;;;;;;;;;;11.20;99.90;;;;;;2617846;54;19958;-72
2023/10/15 17:13:21;;;;;;;;;;;11.10;99.90;;;;;;2616820;47;19950;-72
2023/10/15 17:15:51;;;;;;;;;;;11.10;99.90;;;;;;2617417;54;19945;-71
2023/10/15 17:18:23;;;;;;;;;;;11.00;99.90;;;;;;2616797;54;20401;-72
2023/10/15 17:20:53;;;;;;;;;;;11.00;99.90;;;;;;2616745;47;20413;-73
2023/10/15 17:23:22;;;;;;;;;;;10.90;99.90;;;;;;2616327;54;19938;-74
2023/10/15 17:25:54;;;;;;;;;;;10.80;99.90;;;;;;2618614;54;19953;-72
2023/10/15 17:28:25;;;;;;;;;;;10.70;99.90;;;;;;2613304;47;19951;-74
2023/10/15 17:30:55;;;;;;;;;;;10.70;99.90;;;;;;2605060;54;19982;-73
2023/10/15 17:33:27;;;;;;;;;;;9.60;99.90;;;;;;2606341;47;20498;-73
2023/10/15 17:35:57;;;;;;;;;;;10.70;99.90;;;;;;2606709;47;20056;-72
2023/10/15 17:38:27;;;;;;;;;;;10.70;99.90;;;;;;2606451;54;20038;-72
2023/10/15 17:40:56;;;;;;;;;;;10.70;99.90;;;;;;2606724;47;19946;-72
2023/10/15 17:43:26;;;;;;;;;;;10.70;99.90;;;;;;2606639;54;19946;-71
2023/10/15 17:45:56;;;;;;;;;;;10.70;99.90;;;;;;2607316;47;20037;-72
2023/10/15 17:48:28;;;;;;;;;;;10.70;99.90;;;;;;2606032;47;20014;-72
2023/10/15 17:50:58;;;;;;;;;;;10.70;99.90;;;;;;2607600;39;20181;-72
2023/10/15 17:53:28;;;;;;;;;;;10.70;99.90;;;;;;2606189;51;19970;-72
2023/10/15 17:55:58;;;;;;;;;;;10.60;99.90;;;;;;2606558;47;20017;-71
2023/10/15 17:58:32;;;;;;;;;;;10.60;99.90;;;;;;2606601;47;20072;-73
2023/10/15 18:01:01;;;;;;;;;;;10.60;99.90;;;;;;2607182;54;19995;-74
2023/10/15 18:03:34;;;;;;;;;;;10.60;99.90;;;;;;2607048;47;19974;-74
2023/10/15 18:06:05;;;;;;;;;;;10.60;99.90;;;;;;2608634;47;19947;-78
2023/10/15 18:08:35;;;;;;;;;;;10.60;99.90;;;;;;2606509;47;19957;-72
2023/10/15 18:11:05;;;;;;;;;;;10.60;99.90;;;;;;2606630;54;19950;-72
2023/10/15 18:13:36;;;;;;;;;;;10.60;99.90;;;;;;2607461;48;19999;-76
2023/10/15 18:16:07;;;;;;;;;;;10.60;99.90;;;;;;2611546;39;20362;-74
2023/10/15 18:18:40;;;;;;;;;;;10.50;99.90;;;;;;2609273;47;20055;-72
2023/10/15 18:21:10;;;;;;;;;;;10.70;99.90;;;;;;2618388;47;19947;-79
2023/10/15 18:23:41;;;;;;;;;;;10.50;99.90;;;;;;2616853;47;19971;-76
2023/10/15 18:26:10;;;;;;;;;;;10.60;99.90;;;;;;2613341;47;19958;-74
2023/10/15 18:28:40;;;;;;;;;;;10.50;99.90;;;;;;2623819;47;19957;-77
2023/10/15 18:31:10;;;;;;;;;;;10.50;99.90;;;;;;2626027;47;20059;-76
2023/10/15 18:33:42;;;;;;;;;;;10.50;99.90;;;;;;2624726;47;19946;-74
2023/10/15 18:36:13;;;;;;;;;;;10.40;99.90;;;;;;2625262;54;19939;-78
2023/10/15 18:38:43;;;;;;;;;;;10.50;99.90;;;;;;2625608;54;19947;-76
2023/10/15 18:41:13;;;;;;;;;;;10.40;99.90;;;;;;2624988;47;20453;-76
2023/10/15 18:43:42;;;;;;;;;;;10.50;99.90;;;;;;2623626;46;20432;-75
2023/10/15 18:46:13;;;;;;;;;;;10.30;99.90;;;;;;2620892;54;19994;-74
2023/10/15 18:48:45;;;;;;;;;;;10.40;99.90;;;;;;2616981;47;19939;-72
2023/10/15 18:51:16;;;;;;;;;;;10.30;99.90;;;;;;2617549;54;20485;-73
2023/10/15 18:54:05;;;;;;;;;;;10.30;99.90;;;;;;2618120;47;19973;-73
2023/10/15 18:56:35;;;;;;;;;;;10.30;99.90;;;;;;2618404;54;19950;-76
2023/10/15 18:59:05;;;;;;;;;;;10.20;99.90;;;;;;2615632;46;20496;-74
2023/10/15 19:01:34;;;;;;;;;;;10.20;99.90;;;;;;2615816;39;20009;-74
2023/10/15 19:04:07;;;;;;;;;;;10.20;99.90;;;;;;2616450;47;19962;-76
2023/10/15 19:06:37;;;;;;;;;;;10.30;99.90;;;;;;2618293;54;19946;-73
2023/10/15 19:09:06;;;;;;;;;;;10.20;99.90;;;;;;2618611;39;20372;-78
2023/10/15 19:11:36;;;;;;;;;;;10.20;99.90;;;;;;2619202;47;19957;-76
2023/10/15 19:14:06;;;;;;;;;;;10.20;99.90;;;;;;2618397;47;19953;-77
2023/10/15 19:16:35;;;;;;;;;;;10.10;99.90;;;;;;2617496;47;20484;-73
2023/10/15 19:19:10;;;;;;;;;;;10.20;99.90;;;;;;2617218;46;19965;-74
2023/10/15 19:21:40;;;;;;;;;;;10.10;99.90;;;;;;2617413;47;19977;-73
2023/10/15 19:24:10;;;;;;;;;;;10.10;99.90;;;;;;2616268;47;19946;-74
2023/10/15 19:26:41;;;;;;;;;;;10.00;99.90;;;;;;2617026;47;20111;-73
2023/10/15 19:29:12;;;;;;;;;;;10.00;99.90;;;;;;2616939;54;20625;-74
2023/10/15 19:31:42;;;;;;;;;;;9.90;99.90;;;;;;2617037;47;19947;-72
2023/10/15 19:34:14;;;;;;;;;;;9.90;99.90;;;;;;2615951;47;19945;-73
2023/10/15 19:36:43;;;;;;;;;;;9.90;99.90;;;;;;2616869;54;19945;-73
2023/10/15 19:39:15;;;;;;;;;;;9.80;99.90;;;;;;2616815;47;19947;-73
2023/10/15 19:41:45;;;;;;;;;;;9.80;99.90;;;;;;2617317;31;20466;-73
2023/10/15 19:44:15;;;;;;;;;;;9.60;99.90;;;;;;2617418;54;19943;-72
2023/10/15 19:46:44;;;;;;;;;;;9.70;99.90;;;;;;2619498;47;19946;-74
2023/10/15 19:49:17;;;;;;;;;;;9.50;99.90;;;;;;2616124;54;19947;-73
2023/10/15 19:51:46;;;;;;;;;;;9.50;99.90;;;;;;2616707;47;19947;-73
2023/10/15 19:54:16;;;;;;;;;;;9.50;99.90;;;;;;2615939;49;19950;-75
2023/10/15 19:56:46;;;;;;;;;;;9.50;99.90;;;;;;2617013;54;19962;-75
2023/10/15 19:59:15;;;;;;;;;;;9.50;99.90;;;;;;2616371;52;19939;-74
2023/10/15 20:01:45;;;;;;;;;;;9.40;99.90;;;;;;2616497;47;19954;-73
2023/10/15 20:04:17;;;;;;;;;;;9.40;99.90;;;;;;2616324;54;19999;-72
2023/10/15 20:06:47;;;;;;;;;;;9.40;99.90;;;;;;2616734;47;19953;-72
2023/10/15 20:09:18;;;;;;;;;;;9.40;99.90;;;;;;2616628;47;19946;-72
2023/10/15 20:11:48;;;;;;;;;;;9.40;99.90;;;;;;2617006;47;20076;-72
2023/10/15 20:14:17;;;;;;;;;;;9.30;99.90;;;;;;2616374;46;20087;-72
2023/10/15 20:16:47;;;;;;;;;;;9.30;99.90;;;;;;2616078;54;19954;-72
2023/10/15 20:19:19;;;;;;;;;;;9.30;99.90;;;;;;2617615;47;19970;-71
2023/10/15 20:21:50;;;;;;;;;;;9.20;99.90;;;;;;2617441;47;19947;-71
2023/10/15 20:24:21;;;;;;;;;;;9.20;99.90;;;;;;2616344;47;19947;-73
2023/10/15 20:26:50;;;;;;;;;;;9.40;99.90;;;;;;2617275;39;20352;-72
2023/10/15 20:29:20;;;;;;;;;;;9.30;99.90;;;;;;2618218;39;20369;-71
2023/10/15 20:31:50;;;;;;;;;;;9.10;99.90;;;;;;2617516;47;19954;-71
2023/10/15 20:34:22;;;;;;;;;;;9.00;99.90;;;;;;2617210;39;20325;-73
2023/10/15 20:36:52;;;;;;;;;;;9.00;99.90;;;;;;2617528;47;20497;-71
2023/10/15 20:39:22;;;;;;;;;;;8.90;99.90;;;;;;2618000;39;20345;-71
2023/10/15 20:41:51;;;;;;;;;;;9.00;99.90;;;;;;2616371;54;21080;-70
2023/10/15 20:44:22;;;;;;;;;;;8.90;99.90;;;;;;2616530;54;19946;-71
2023/10/15 20:46:52;;;;;;;;;;;8.90;99.90;;;;;;2617162;47;19947;-70
2023/10/15 20:49:24;;;;;;;;;;;8.70;99.90;;;;;;2616162;47;20038;-72
2023/10/15 20:51:54;;;;;;;;;;;8.80;99.90;;;;;;2615886;47;19970;-72
2023/10/15 20:54:24;;;;;;;;;;;8.70;99.90;;;;;;2615826;47;19958;-71
2023/10/15 20:56:54;;;;;;;;;;;8.70;99.90;;;;;;2616865;47;19954;-71
2023/10/15 20:59:24;;;;;;;;;;;8.70;99.90;;;;;;2617621;46;19939;-72
2023/10/15 21:01:53;;;;;;;;;;;8.60;99.90;;;;;;2616695;54;19963;-73
2023/10/15 21:04:27;;;;;;;;;;;8.60;99.90;;;;;;2616422;54;19958;-72
2023/10/15 21:06:57;;;;;;;;;;;8.60;99.90;;;;;;2617589;54;19938;-71
2023/10/15 21:09:26;;;;;;;;;;;8.60;99.90;;;;;;2616536;54;19946;-72
2023/10/15 21:11:56;;;;;;;;;;;8.50;99.90;;;;;;2616950;54;19939;-72
2023/10/15 21:14:26;;;;;;;;;;;8.50;99.90;;;;;;2616531;46;19953;-72
2023/10/15 21:16:55;;;;;;;;;;;8.40;99.90;;;;;;2617179;54;19938;-71
2023/10/15 21:19:27;;;;;;;;;;;8.40;99.90;;;;;;2616686;47;19958;-70
2023/10/15 21:21:58;;;;;;;;;;;8.60;99.90;;;;;;2616980;54;20433;-71
2023/10/15 21:24:28;;;;;;;;;;;8.30;99.90;;;;;;2616987;47;19939;-71
2023/10/15 21:26:57;;;;;;;;;;;8.30;99.90;;;;;;2616668;47;19947;-71
2023/10/15 21:29:29;;;;;;;;;;;8.20;99.90;;;;;;2618187;39;20405;-71
2023/10/15 21:31:59;;;;;;;;;;;8.10;99.90;;;;;;2619142;31;20474;-72
2023/10/15 21:34:31;;;;;;;;;;;7.90;99.90;;;;;;2616933;47;19998;-71
2023/10/15 21:37:02;;;;;;;;;;;7.80;99.90;;;;;;2617843;54;19950;-71
2023/10/15 21:39:31;;;;;;;;;;;7.70;99.90;;;;;;2616512;47;19947;-72
2023/10/15 21:42:01;;;;;;;;;;;7.70;99.90;;;;;;2616227;47;19947;-72
2023/10/15 21:44:31;;;;;;;;;;;7.70;99.90;;;;;;2617162;47;19939;-71
2023/10/15 21:47:00;;;;;;;;;;;7.80;99.90;;;;;;2617942;47;19946;-72
2023/10/15 21:49:32;;;;;;;;;;;7.80;99.90;;;;;;2617227;54;19947;-72
2023/10/15 21:52:03;;;;;;;;;;;8.10;99.90;;;;;;2617823;47;19946;-72
2023/10/15 21:54:32;;;;;;;;;;;7.90;99.90;;;;;;2616800;54;19947;-72
2023/10/15 21:57:02;;;;;;;;;;;7.90;99.90;;;;;;2618278;47;19958;-72
2023/10/15 21:59:31;;;;;;;;;;;7.90;99.90;;;;;;2617464;54;19947;-71
2023/10/15 22:02:01;;;;;;;;;;;7.90;99.90;;;;;;2616408;47;19947;-72
2023/10/15 22:04:36;;;;;;;;;;;7.90;99.90;;;;;;2615952;47;19946;-71
2023/10/15 22:09:40;;;;;;;;;;;7.90;99.90;;;;;;2616505;54;19946;-75
2023/10/15 22:12:10;;;;;;;;;;;8.00;99.90;;;;;;2617045;47;19939;-75
2023/10/15 22:14:45;;;;;;;;;;;7.90;99.90;;;;;;2615752;47;19978;-75
2023/10/15 22:17:17;;;;;;;;;;;7.90;99.90;;;;;;2616871;47;19970;-75
2023/10/15 22:19:50;;;;;;;;;;;7.90;99.90;;;;;;2616250;47;20553;-75
2023/10/15 22:22:23;;;;;;;;;;;7.90;99.90;;;;;;2617621;53;20534;-76
2023/10/15 22:24:53;;;;;;;;;;;7.80;99.90;;;;;;2616786;47;19949;-74
2023/10/15 22:27:25;;;;;;;;;;;7.90;99.90;;;;;;2617089;47;19953;-75
2023/10/15 22:30:04;;;;;;;;;;;7.80;99.90;;;;;;2617086;52;19953;-75
2023/10/15 22:32:33;;;;;;;;;;;7.80;99.90;;;;;;2617513;51;19947;-75
2023/10/15 22:35:06;;;;;;;;;;;7.70;99.90;;;;;;2615767;47;20465;-75
2023/10/15 22:37:35;;;;;;;;;;;7.70;99.90;;;;;;2617099;54;19954;-75
2023/10/15 22:40:07;;;;;;;;;;;7.70;99.90;;;;;;2616586;54;19954;-75
2023/10/15 22:42:38;;;;;;;;;;;7.70;99.90;;;;;;2616890;54;19983;-74
2023/10/15 22:45:10;;;;;;;;;;;7.70;99.90;;;;;;2616486;47;19946;-75
2023/10/15 22:47:43;;;;;;;;;;;7.70;99.90;;;;;;2616853;47;20438;-76
2023/10/15 22:50:16;;;;;;;;;;;7.70;99.90;;;;;;2616862;54;20453;-75
2023/10/15 22:52:46;;;;;;;;;;;7.60;99.90;;;;;;2616651;47;20489;-75
2023/10/15 22:55:16;;;;;;;;;;;8.60;99.90;;;;;;2616289;47;19966;-76
2023/10/15 22:57:46;;;;;;;;;;;7.60;99.90;;;;;;2615621;47;19938;-74
2023/10/15 23:00:22;;;;;;;;;;;7.60;99.90;;;;;;2616701;47;19938;-75
2023/10/15 23:02:56;;;;;;;;;;;7.60;99.90;;;;;;2616394;51;19939;-75
2023/10/15 23:05:28;;;;;;;;;;;7.60;99.90;;;;;;2616302;47;19939;-74
2023/10/15 23:07:58;;;;;;;;;;;7.60;99.90;;;;;;2616457;54;19939;-75
2023/10/15 23:10:28;;;;;;;;;;;7.60;99.90;;;;;;2616406;47;19946;-74
2023/10/15 23:12:58;;;;;;;;;;;7.60;99.90;;;;;;2616499;54;19946;-74
2023/10/15 23:15:29;;;;;;;;;;;7.60;99.90;;;;;;2616797;47;19946;-74
2023/10/15 23:17:58;;;;;;;;;;;7.60;99.90;;;;;;2616724;54;19981;-75
2023/10/15 23:20:40;;;;;;;;;;;7.50;99.90;;;;;;2616935;47;19954;-75
2023/10/15 23:23:17;;;;;;;;;;;7.60;99.90;;;;;;2616590;54;19947;-75
2023/10/15 23:25:51;;;;;;;;;;;7.50;99.90;;;;;;2617045;47;19939;-74
2023/10/15 23:28:23;;;;;;;;;;;7.50;99.90;;;;;;2616488;54;19946;-75
2023/10/15 23:30:55;;;;;;;;;;;7.50;99.90;;;;;;2616915;47;19947;-75
2023/10/15 23:33:28;;;;;;;;;;;7.60;99.90;;;;;;2616089;47;19954;-75
2023/10/15 23:36:05;;;;;;;;;;;7.60;99.90;;;;;;2617272;39;20346;-75
2023/10/15 23:38:36;;;;;;;;;;;7.60;99.90;;;;;;2616548;47;19938;-75
2023/10/15 23:41:05;;;;;;;;;;;7.90;99.90;;;;;;2616962;39;20639;-75
2023/10/15 23:43:35;;;;;;;;;;;7.70;99.90;;;;;;2614450;54;19946;-75
2023/10/15 23:46:08;;;;;;;;;;;7.70;99.90;;;;;;2616810;54;19945;-75
2023/10/15 23:48:40;;;;;;;;;;;7.80;99.90;;;;;;2615971;47;19939;-75
2023/10/15 23:51:15;;;;;;;;;;;7.80;99.90;;;;;;2616823;47;20449;-75
2023/10/15 23:53:45;;;;;;;;;;;7.80;99.90;;;;;;2617727;54;19974;-76
2023/10/15 23:56:22;;;;;;;;;;;7.80;99.90;;;;;;2618445;47;20465;-75
2023/10/15 23:58:56;;;;;;;;;;;7.80;99.90;;;;;;2618272;39;20234;-75
